createdAt,value
2018-07-28T00:02:05.402Z,38.53
2018-07-28T00:04:41.407Z,38.68
2018-07-28T00:10:37.218Z,39.04
2018-07-28T00:13:20.771Z,38.99
2018-07-28T00:16:03.521Z,39.06
2018-07-28T00:18:43.043Z,39.15
2018-07-28T00:21:42.682Z,39.41
2018-07-28T00:24:23.271Z,39.60
2018-07-28T00:27:00.703Z,39.42
2018-07-28T00:29:41.946Z,39.48
2018-07-28T00:32:20.656Z,39.73
2018-07-28T00:35:07.544Z,39.73
2018-07-28T00:37:45.628Z,39.87
2018-07-28T00:40:24.817Z,39.95
2018-07-28T00:43:04.410Z,40.00
2018-07-28T00:46:04.739Z,40.00
2018-07-28T00:48:46.689Z,40.14
2018-07-28T00:51:29.692Z,40.26
2018-07-28T00:54:05.951Z,40.38
2018-07-28T00:56:46.035Z,40.56
2018-07-28T00:59:23.635Z,40.52
2018-07-28T01:02:11.596Z,40.52
2018-07-28T01:04:54.698Z,40.66
2018-07-28T01:07:39.237Z,40.66
2018-07-28T01:10:13.540Z,40.82
2018-07-28T01:12:48.078Z,41.16
2018-07-28T01:15:20.735Z,41.21
2018-07-28T01:17:53.489Z,41.31
2018-07-28T01:20:26.699Z,41.40
2018-07-28T01:22:59.877Z,41.68
2018-07-28T01:25:32.425Z,41.76
2018-07-28T01:28:05.773Z,41.63
2018-07-28T01:30:38.506Z,41.65
2018-07-28T01:33:11.378Z,41.46
2018-07-28T01:35:46.119Z,41.28
2018-07-28T01:38:18.974Z,41.26
2018-07-28T01:40:51.651Z,41.36
2018-07-28T01:43:25.844Z,41.67
2018-07-28T01:45:58.914Z,41.96
2018-07-28T01:48:31.737Z,42.31
2018-07-28T01:51:05.008Z,42.53
2018-07-28T01:53:37.862Z,42.67
2018-07-28T01:56:10.707Z,42.95
2018-07-28T01:58:44.882Z,42.81
2018-07-28T02:01:17.705Z,42.81
2018-07-28T02:03:51.470Z,42.93
2018-07-28T02:06:25.360Z,43.48
2018-07-28T02:08:58.030Z,44.12
2018-07-28T02:11:31.922Z,44.13
2018-07-28T02:14:07.707Z,44.24
2018-07-28T02:16:40.706Z,44.68
2018-07-28T02:19:14.114Z,45.02
2018-07-28T02:21:47.686Z,45.53
2018-07-28T02:24:20.506Z,46.07
2018-07-28T02:26:56.414Z,46.47
2018-07-28T02:29:29.744Z,47.04
2018-07-28T02:32:02.588Z,47.21
2018-07-28T02:34:35.343Z,47.41
2018-07-28T02:37:10.504Z,47.88
2018-07-28T02:39:43.303Z,48.24
2018-07-28T02:42:16.180Z,48.73
2018-07-28T02:44:51.359Z,48.73
2018-07-28T02:47:25.084Z,48.79
2018-07-28T02:49:57.937Z,48.63
2018-07-28T02:52:31.179Z,48.25
2018-07-28T02:55:04.582Z,48.14
2018-07-28T02:57:38.233Z,48.23
2018-07-28T03:00:15.203Z,48.22
2018-07-28T03:02:48.313Z,48.24
2018-07-28T03:05:21.678Z,47.82
2018-07-28T03:07:55.046Z,47.49
2018-07-28T03:10:28.077Z,47.77
2018-07-28T03:13:00.685Z,47.90
2018-07-28T03:15:35.667Z,48.21
2018-07-28T03:18:08.829Z,48.43
2018-07-28T03:20:42.218Z,48.69
2018-07-28T03:23:16.755Z,48.81
2018-07-28T03:25:50.560Z,49.22
2018-07-28T03:28:23.225Z,49.99
2018-07-28T03:30:57.413Z,50.55
2018-07-28T03:33:30.191Z,50.77
2018-07-28T03:36:03.330Z,52.09
2018-07-28T03:38:36.570Z,52.09
2018-07-28T03:41:13.402Z,52.49
2018-07-28T03:43:46.030Z,53.59
2018-07-28T03:46:20.114Z,53.44
2018-07-28T03:48:52.905Z,53.81
2018-07-28T03:51:25.570Z,54.94
2018-07-28T03:54:00.022Z,55.00
2018-07-28T03:56:32.845Z,55.68
2018-07-28T03:59:06.338Z,55.94
2018-07-28T04:01:39.002Z,55.81
2018-07-28T04:04:11.793Z,55.88
2018-07-28T04:06:44.314Z,56.56
2018-07-28T04:09:20.385Z,56.40
2018-07-28T04:11:53.583Z,56.60
2018-07-28T04:14:26.480Z,57.00
2018-07-28T04:16:59.203Z,57.12
2018-07-28T04:19:34.210Z,57.37
2018-07-28T04:22:07.277Z,58.17
2018-07-28T04:24:41.595Z,58.21
2018-07-28T04:27:15.478Z,58.75
2018-07-28T04:29:48.190Z,58.64
2018-07-28T04:32:20.764Z,58.64
2018-07-28T04:34:53.767Z,58.97
2018-07-28T04:37:27.340Z,59.07
2018-07-28T04:40:05.001Z,59.21
2018-07-28T04:42:38.862Z,59.61
2018-07-28T04:45:13.886Z,59.81
2018-07-28T04:47:48.174Z,59.58
2018-07-28T04:50:22.906Z,59.94
2018-07-28T04:52:55.635Z,59.79
2018-07-28T04:55:28.883Z,60.04
2018-07-28T04:58:01.513Z,59.97
2018-07-28T05:00:35.840Z,60.00
2018-07-28T05:03:10.538Z,60.04
2018-07-28T05:05:43.220Z,60.29
2018-07-28T05:08:17.524Z,60.12
2018-07-28T05:10:52.578Z,59.90
2018-07-28T05:13:25.689Z,59.76
2018-07-28T05:15:58.470Z,59.48
2018-07-28T05:18:32.421Z,59.36
2018-07-28T05:21:05.338Z,59.10
2018-07-28T05:23:38.035Z,58.79
2018-07-28T05:26:11.242Z,58.22
2018-07-28T05:28:45.540Z,57.51
2018-07-28T05:31:21.835Z,56.52
2018-07-28T05:33:54.493Z,55.85
2018-07-28T05:36:27.946Z,55.23
2018-07-28T05:39:01.153Z,54.43
2018-07-28T05:41:33.863Z,53.69
2018-07-28T05:44:07.564Z,53.63
2018-07-28T05:46:40.941Z,53.28
2018-07-28T05:49:14.167Z,53.47
2018-07-28T05:51:46.726Z,53.54
2018-07-28T05:54:19.802Z,53.60
2018-07-28T05:56:53.059Z,53.71
2018-07-28T05:59:25.726Z,53.97
2018-07-28T06:02:00.190Z,54.61
2018-07-28T06:04:32.901Z,54.96
2018-07-28T06:07:07.560Z,55.28
2018-07-28T06:09:41.771Z,55.50
2018-07-28T06:12:15.958Z,55.77
2018-07-28T06:14:48.801Z,55.93
2018-07-28T06:17:23.726Z,55.93
2018-07-28T06:19:56.509Z,56.16
2018-07-28T06:22:29.123Z,56.39
2018-07-28T06:25:05.268Z,56.43
2018-07-28T06:27:38.965Z,56.36
2018-07-28T06:30:15.181Z,56.55
2018-07-28T06:32:48.246Z,56.42
2018-07-28T06:35:22.024Z,56.63
2018-07-28T06:37:54.935Z,57.82
2018-07-28T06:40:28.990Z,59.42
2018-07-28T06:43:01.942Z,61.85
2018-07-28T06:45:34.631Z,66.01
2018-07-28T06:48:10.103Z,68.81
2018-07-28T06:50:46.909Z,70.98
2018-07-28T06:53:22.986Z,73.84
2018-07-28T06:55:57.491Z,75.07
2018-07-28T06:58:30.419Z,74.76
2018-07-28T07:01:05.170Z,76.69
2018-07-28T07:03:38.986Z,78.54
2018-07-28T07:06:14.766Z,78.50
2018-07-28T07:08:48.503Z,78.67
2018-07-28T07:11:21.275Z,77.67
2018-07-28T07:13:56.395Z,77.61
2018-07-28T07:16:39.119Z,78.92
2018-07-28T07:19:12.496Z,78.28
2018-07-28T07:21:45.595Z,78.50
2018-07-28T07:24:19.879Z,78.76
2018-07-28T07:26:55.295Z,78.83
2018-07-28T07:29:33.370Z,78.87
2018-07-28T07:32:07.967Z,78.97
2018-07-28T07:34:41.845Z,78.60
2018-07-28T07:37:16.666Z,77.75
2018-07-28T07:39:50.595Z,77.73
2018-07-28T07:42:32.803Z,77.78
2018-07-28T07:45:07.207Z,77.53
2018-07-28T07:47:40.796Z,78.43
2018-07-28T07:50:15.110Z,78.27
2018-07-28T07:52:49.265Z,78.59
2018-07-28T07:55:22.711Z,77.73
2018-07-28T07:57:57.001Z,77.78
2018-07-28T08:00:30.302Z,76.39
2018-07-28T08:03:04.085Z,75.62
2018-07-28T08:05:37.816Z,75.12
2018-07-28T08:08:13.821Z,75.46
2018-07-28T08:10:48.384Z,73.57
2018-07-28T08:13:21.193Z,72.96
2018-07-28T08:15:58.299Z,72.21
2018-07-28T08:18:31.163Z,72.19
2018-07-28T08:21:03.925Z,69.53
2018-07-28T08:23:40.388Z,69.31
2018-07-28T08:26:13.232Z,68.79
2018-07-28T08:28:50.416Z,69.80
2018-07-28T08:31:24.148Z,70.20
2018-07-28T08:33:56.998Z,71.26
2018-07-28T08:36:30.197Z,71.65
2018-07-28T08:39:05.246Z,71.57
2018-07-28T08:41:39.449Z,71.73
2018-07-28T08:44:13.986Z,72.38
2018-07-28T08:46:47.024Z,72.93
2018-07-28T08:49:20.681Z,72.91
2018-07-28T08:51:54.034Z,72.77
2018-07-28T08:54:28.758Z,73.29
2018-07-28T08:57:03.100Z,71.63
2018-07-28T08:59:37.038Z,70.63
2018-07-28T09:02:11.392Z,69.40
2018-07-28T09:04:44.438Z,68.60
2018-07-28T09:07:19.110Z,69.02
2018-07-28T09:09:53.323Z,68.33
2018-07-28T09:12:26.072Z,66.08
2018-07-28T09:14:59.496Z,64.99
2018-07-28T09:17:33.853Z,65.54
2018-07-28T09:20:08.781Z,65.43
2018-07-28T09:22:42.516Z,64.67
2018-07-28T09:25:28.948Z,64.06
2018-07-28T09:28:03.430Z,63.27
2018-07-28T09:30:36.288Z,63.29
2018-07-28T09:33:10.532Z,62.85
2018-07-28T09:35:44.769Z,62.04
2018-07-28T09:38:19.758Z,61.94
2018-07-28T09:40:55.298Z,60.90
2018-07-28T09:43:28.105Z,59.47
2018-07-28T09:46:01.760Z,56.19
2018-07-28T09:48:44.935Z,55.27
2018-07-28T09:51:18.873Z,54.27
2018-07-28T09:53:59.677Z,53.25
2018-07-28T09:56:38.540Z,53.00
2018-07-28T09:59:13.357Z,51.89
2018-07-28T10:01:46.615Z,49.62
2018-07-28T10:04:20.497Z,48.32
2018-07-28T10:06:53.314Z,48.35
2018-07-28T10:09:26.016Z,47.81
2018-07-28T10:11:59.156Z,47.07
2018-07-28T10:14:32.671Z,46.92
2018-07-28T10:17:06.747Z,46.49
2018-07-28T10:19:42.538Z,46.57
2018-07-28T10:22:19.597Z,45.73
2018-07-28T10:24:55.026Z,46.33
2018-07-28T10:27:31.927Z,46.36
2018-07-28T10:30:08.725Z,47.24
2018-07-28T10:33:06.415Z,49.04
2018-07-28T10:35:41.091Z,50.31
2018-07-28T10:38:15.890Z,50.67
2018-07-28T10:40:50.283Z,50.65
2018-07-28T10:43:24.118Z,50.13
2018-07-28T10:45:57.511Z,49.38
2018-07-28T10:48:31.983Z,49.43
2018-07-28T10:51:07.006Z,48.36
2018-07-28T10:53:43.378Z,46.81
2018-07-28T10:56:18.544Z,46.31
2018-07-28T10:58:55.470Z,45.03
2018-07-28T11:01:29.031Z,45.70
2018-07-28T11:04:02.464Z,44.26
2018-07-28T11:06:54.128Z,42.74
2018-07-28T11:09:40.680Z,41.78
2018-07-28T11:12:17.291Z,41.78
2018-07-28T11:14:53.175Z,42.26
2018-07-28T11:17:26.795Z,41.19
2018-07-28T11:20:06.968Z,39.43
2018-07-28T11:22:40.823Z,39.38
2018-07-28T11:25:13.850Z,38.85
2018-07-28T11:27:48.571Z,38.82
2018-07-28T11:30:21.822Z,39.42
2018-07-28T11:33:18.258Z,38.44
2018-07-28T11:36:13.681Z,37.29
2018-07-28T11:39:10.515Z,37.07
2018-07-28T11:42:06.353Z,37.55
2018-07-28T11:45:15.353Z,37.74
2018-07-28T11:47:54.106Z,37.63
2018-07-28T11:50:32.635Z,38.30
2018-07-28T11:53:13.466Z,39.70
2018-07-28T11:55:51.695Z,40.16
2018-07-28T11:58:29.700Z,40.08
2018-07-28T12:01:04.674Z,40.45
2018-07-28T12:03:38.374Z,40.72
2018-07-28T12:06:11.523Z,41.13
2018-07-28T12:08:44.766Z,41.46
2018-07-28T12:11:17.471Z,40.22
2018-07-28T12:13:50.442Z,37.56
2018-07-28T12:16:24.849Z,36.95
2018-07-28T12:18:59.895Z,37.36
2018-07-28T12:21:33.449Z,36.99
2018-07-28T12:24:07.084Z,38.40
2018-07-28T12:26:41.027Z,38.05
2018-07-28T12:29:15.462Z,38.35
2018-07-28T12:31:52.099Z,38.75
2018-07-28T12:34:27.306Z,37.86
2018-07-28T12:37:00.624Z,39.09
2018-07-28T12:39:34.067Z,37.97
2018-07-28T12:42:08.698Z,37.20
2018-07-28T12:44:42.538Z,37.49
2018-07-28T12:47:18.637Z,38.25
2018-07-28T12:49:51.630Z,38.74
2018-07-28T12:52:26.201Z,38.81
2018-07-28T12:55:00.548Z,38.74
2018-07-28T12:57:36.792Z,39.39
2018-07-28T13:00:14.151Z,39.79
2018-07-28T13:02:47.367Z,40.37
2018-07-28T13:05:20.754Z,40.15
2018-07-28T13:07:54.970Z,39.99
2018-07-28T13:10:29.095Z,40.63
2018-07-28T13:13:03.097Z,40.75
2018-07-28T13:15:36.834Z,40.51
2018-07-28T13:18:11.327Z,39.17
2018-07-28T13:20:55.711Z,38.39
2018-07-28T13:23:33.325Z,37.84
2018-07-28T13:26:07.364Z,36.84
2018-07-28T13:28:41.366Z,36.01
2018-07-28T13:31:16.319Z,35.96
2018-07-28T13:33:51.297Z,35.73
2018-07-28T13:36:25.847Z,36.12
2018-07-28T13:39:01.190Z,36.43
2018-07-28T13:41:36.208Z,36.97
2018-07-28T13:44:11.260Z,37.52
2018-07-28T13:46:46.865Z,37.88
2018-07-28T13:49:24.356Z,38.24
2018-07-28T13:51:58.798Z,37.17
2018-07-28T13:54:32.527Z,35.67
2018-07-28T13:57:17.753Z,35.35
2018-07-28T13:59:51.587Z,34.08
2018-07-28T14:02:29.376Z,34.63
2018-07-28T14:05:05.041Z,34.35
2018-07-28T14:07:40.455Z,35.37
2018-07-28T14:10:13.311Z,35.77
2018-07-28T14:12:53.953Z,35.64
2018-07-28T14:15:26.790Z,36.16
2018-07-28T14:18:02.975Z,36.61
2018-07-28T14:20:38.007Z,36.78
2018-07-28T14:23:11.796Z,37.32
2018-07-28T14:25:46.036Z,37.69
2018-07-28T14:28:20.921Z,37.66
2018-07-28T14:30:53.902Z,35.74
2018-07-28T14:33:28.598Z,35.26
2018-07-28T14:36:03.647Z,34.63
2018-07-28T14:38:37.361Z,34.99
2018-07-28T14:41:11.220Z,35.39
2018-07-28T14:43:44.851Z,35.52
2018-07-28T14:46:19.050Z,35.92
2018-07-28T14:48:52.917Z,35.06
2018-07-28T14:51:29.798Z,35.12
2018-07-28T14:54:03.679Z,34.93
2018-07-28T14:56:37.244Z,35.51
2018-07-28T14:59:11.318Z,36.00
2018-07-28T15:01:45.110Z,36.79
2018-07-28T15:04:19.762Z,37.38
2018-07-28T15:06:52.866Z,37.89
2018-07-28T15:09:29.442Z,37.27
2018-07-28T15:12:03.983Z,37.29
2018-07-28T15:14:39.935Z,37.37
2018-07-28T15:17:13.527Z,36.58
2018-07-28T15:19:46.866Z,37.16
2018-07-28T15:22:20.937Z,37.93
2018-07-28T15:24:58.188Z,38.73
2018-07-28T15:27:33.835Z,39.63
2018-07-28T15:30:10.120Z,39.87
2018-07-28T15:32:43.797Z,40.65
2018-07-28T15:35:18.010Z,41.06
2018-07-28T15:37:53.502Z,41.20
2018-07-28T15:40:26.793Z,40.61
2018-07-28T15:43:00.804Z,40.55
2018-07-28T15:45:36.051Z,41.49
2018-07-28T15:48:09.830Z,41.54
2018-07-28T15:50:49.258Z,41.40
2018-07-28T15:53:23.170Z,40.46
2018-07-28T15:55:56.524Z,40.00
2018-07-28T15:58:31.300Z,39.87
2018-07-28T16:01:08.805Z,39.29
2018-07-28T16:03:45.331Z,37.24
2018-07-28T16:06:20.452Z,35.15
2018-07-28T16:12:05.399Z,35.61
2018-07-28T16:14:39.614Z,34.78
2018-07-28T16:17:13.129Z,33.64
2018-07-28T16:19:47.440Z,33.43
2018-07-28T16:22:25.256Z,33.09
2018-07-28T16:25:08.060Z,34.26
2018-07-28T16:27:43.243Z,35.64
2018-07-28T16:30:19.671Z,36.65
2018-07-28T16:32:58.786Z,36.86
2018-07-28T16:35:32.578Z,37.11
2018-07-28T16:38:07.710Z,37.42
2018-07-28T16:40:46.103Z,37.38
2018-07-28T16:43:19.238Z,37.87
2018-07-28T16:45:53.576Z,38.58
2018-07-28T16:48:27.015Z,38.88
2018-07-28T16:51:02.766Z,38.84
2018-07-28T16:53:39.783Z,38.98
2018-07-28T16:56:13.242Z,39.33
2018-07-28T16:58:48.475Z,39.60
2018-07-28T17:01:21.987Z,39.46
2018-07-28T17:03:57.538Z,39.87
2018-07-28T17:06:33.232Z,40.14
2018-07-28T17:09:11.790Z,40.44
2018-07-28T17:11:45.988Z,40.98
2018-07-28T17:14:22.055Z,41.35
2018-07-28T17:16:58.671Z,42.42
2018-07-28T17:19:37.016Z,43.04
2018-07-28T17:22:11.587Z,43.63
2018-07-28T17:24:45.557Z,43.98
2018-07-28T17:27:30.808Z,43.79
2018-07-28T17:30:23.618Z,44.07
2018-07-28T17:33:01.283Z,43.79
2018-07-28T17:36:19.895Z,43.96
2018-07-28T17:38:56.375Z,44.21
2018-07-28T17:41:31.243Z,44.18
2018-07-28T17:44:07.227Z,43.67
2018-07-28T17:46:55.329Z,42.88
2018-07-28T17:49:29.171Z,42.37
2018-07-28T17:52:08.295Z,42.30
2018-07-28T17:54:45.597Z,41.65
2018-07-28T17:57:22.140Z,41.40
2018-07-28T17:59:58.938Z,41.35
2018-07-28T18:02:36.916Z,41.55
2018-07-28T18:05:27.447Z,41.41
2018-07-28T18:08:03.895Z,41.30
2018-07-28T18:10:37.743Z,41.49
2018-07-28T18:13:11.825Z,41.42
2018-07-28T18:15:46.448Z,41.53
2018-07-28T18:18:20.059Z,41.42
2018-07-28T18:20:52.982Z,41.04
2018-07-28T18:23:28.406Z,41.49
2018-07-28T18:26:01.297Z,41.86
2018-07-28T18:28:34.218Z,42.34
2018-07-28T18:31:14.952Z,42.84
2018-07-28T18:33:49.717Z,43.30
2018-07-28T18:36:23.051Z,43.69
2018-07-28T18:38:55.747Z,43.99
2018-07-28T18:41:30.207Z,44.23
2018-07-28T18:44:04.866Z,44.59
2018-07-28T18:46:38.674Z,44.88
2018-07-28T18:49:11.642Z,44.10
2018-07-28T18:51:46.902Z,44.58
2018-07-28T18:54:27.287Z,43.65
2018-07-28T18:57:02.487Z,43.71
2018-07-28T18:59:38.206Z,43.80
2018-07-28T19:02:14.007Z,43.64
2018-07-28T19:04:55.266Z,43.17
2018-07-28T19:07:28.731Z,42.71
2018-07-28T19:10:04.718Z,42.02
2018-07-28T19:12:42.753Z,42.06
2018-07-28T19:15:17.153Z,42.37
2018-07-28T19:18:05.268Z,42.69
2018-07-28T19:20:39.706Z,42.98
2018-07-28T19:23:19.511Z,43.29
2018-07-28T19:25:55.083Z,43.62
2018-07-28T19:28:33.638Z,43.76
2018-07-28T19:31:10.733Z,43.98
2018-07-28T19:33:46.275Z,44.09
2018-07-28T19:36:24.821Z,44.17
2018-07-28T19:39:01.360Z,44.34
2018-07-28T19:41:41.744Z,44.58
2018-07-28T19:44:24.833Z,44.83
2018-07-28T19:47:01.873Z,45.17
2018-07-28T19:49:36.630Z,45.50
2018-07-28T19:52:14.791Z,45.81
2018-07-28T19:54:53.792Z,46.05
2018-07-28T19:57:32.258Z,46.46
2018-07-28T20:00:07.131Z,46.58
2018-07-28T20:02:39.844Z,46.67
2018-07-28T20:05:13.060Z,46.94
2018-07-28T20:07:48.811Z,46.99
2018-07-28T20:10:26.433Z,47.33
2018-07-28T20:13:01.955Z,46.86
2018-07-28T20:15:35.809Z,46.70
2018-07-28T20:18:11.506Z,46.35
2018-07-28T20:20:46.997Z,46.28
2018-07-28T20:23:35.322Z,46.45
2018-07-28T20:26:17.662Z,46.13
2018-07-28T20:28:55.353Z,46.14
2018-07-28T20:31:33.775Z,46.30
2018-07-28T20:34:10.177Z,46.38
2018-07-28T20:36:46.327Z,46.44
2018-07-28T20:39:23.931Z,46.75
2018-07-28T20:41:59.477Z,47.02
2018-07-28T20:44:37.492Z,47.28
2018-07-28T20:47:14.466Z,47.42
2018-07-28T20:49:48.355Z,46.74
2018-07-28T20:52:25.322Z,46.50
2018-07-28T20:55:02.304Z,46.40
2018-07-28T20:57:38.298Z,46.13
2018-07-28T21:00:15.870Z,46.37
2018-07-28T21:02:51.686Z,46.79
2018-07-28T21:05:34.859Z,46.66
2018-07-28T21:08:12.051Z,46.90
2018-07-28T21:10:46.472Z,47.03
2018-07-28T21:13:21.084Z,47.31
2018-07-28T21:15:59.566Z,47.42
2018-07-28T21:18:38.042Z,47.76
2018-07-28T21:21:12.482Z,48.91
2018-07-28T21:23:47.474Z,49.28
2018-07-28T21:26:24.321Z,51.13
2018-07-28T21:28:57.681Z,51.70
2018-07-28T21:31:31.328Z,53.06
2018-07-28T21:34:05.660Z,53.23
2018-07-28T21:36:40.820Z,54.03
2018-07-28T21:39:14.386Z,54.35
2018-07-28T21:41:49.475Z,55.16
2018-07-28T21:44:22.203Z,56.09
2018-07-28T21:46:59.136Z,56.60
2018-07-28T21:49:34.745Z,56.72
2018-07-28T21:52:07.982Z,57.30
2018-07-28T21:54:42.649Z,57.63
2018-07-28T21:57:16.995Z,58.50
2018-07-28T21:59:50.487Z,58.85
2018-07-28T22:02:24.135Z,59.30
2018-07-28T22:05:00.349Z,59.77
2018-07-28T22:07:33.435Z,59.99
2018-07-28T22:10:07.074Z,61.09
2018-07-28T22:12:42.718Z,61.38
2018-07-28T22:15:16.508Z,61.96
2018-07-28T22:17:49.879Z,63.13
2018-07-28T22:20:26.215Z,63.00
2018-07-28T22:22:59.898Z,63.13
2018-07-28T22:25:34.164Z,63.31
2018-07-28T22:28:08.209Z,63.69
2018-07-28T22:30:44.310Z,64.22
2018-07-28T22:33:17.901Z,64.28
2018-07-28T22:35:52.481Z,64.31
2018-07-28T22:38:26.250Z,64.18
2018-07-28T22:41:01.315Z,63.35
2018-07-28T22:43:34.359Z,62.65
2018-07-28T22:46:07.933Z,61.64
2018-07-28T22:48:42.203Z,61.10
2018-07-28T22:51:20.194Z,60.86
2018-07-28T22:53:53.598Z,60.88
2018-07-28T22:56:32.205Z,60.64
2018-07-28T22:59:06.161Z,60.52
2018-07-28T23:01:39.510Z,60.01
2018-07-28T23:04:12.332Z,59.41
2018-07-28T23:06:45.176Z,59.00
2018-07-28T23:09:19.974Z,58.31
2018-07-28T23:11:55.747Z,57.42
2018-07-28T23:14:28.491Z,57.45
2018-07-28T23:17:02.722Z,57.73
2018-07-28T23:19:40.929Z,58.00
2018-07-28T23:22:15.698Z,58.24
2018-07-28T23:24:49.492Z,58.37
2018-07-28T23:27:23.474Z,58.65
2018-07-28T23:29:57.287Z,58.62
2018-07-28T23:32:30.308Z,58.27
2018-07-28T23:35:05.664Z,58.47
2018-07-28T23:37:40.056Z,58.63
2018-07-28T23:40:12.736Z,58.73
2018-07-28T23:42:48.003Z,58.66
2018-07-28T23:45:22.475Z,58.70
2018-07-28T23:47:56.164Z,58.45
2018-07-28T23:50:31.627Z,58.40
2018-07-28T23:53:12.078Z,58.84
2018-07-28T23:55:44.718Z,59.16
2018-07-28T23:58:18.712Z,59.10
